createdAt,value
2023-04-14T00:01:52.920Z,71.20
2023-04-14T00:04:21.891Z,73.53
2023-04-14T00:06:51.422Z,72.10
2023-04-14T00:09:19.623Z,72.50
2023-04-14T00:11:49.433Z,72.60
2023-04-14T00:14:17.719Z,72.47
2023-04-14T00:16:46.823Z,72.53
2023-04-14T00:19:16.831Z,72.73
2023-04-14T00:21:45.462Z,73.37
2023-04-14T00:24:13.778Z,72.73
2023-04-14T00:26:42.352Z,74.80
2023-04-14T00:29:11.196Z,74.37
2023-04-14T00:31:40.110Z,74.27
2023-04-14T00:34:08.419Z,72.90
2023-04-14T00:36:38.318Z,73.03
2023-04-14T00:39:06.587Z,75.17
2023-04-14T00:41:35.618Z,79.43
2023-04-14T00:44:03.857Z,74.60
2023-04-14T00:46:32.763Z,76.43
2023-04-14T00:49:01.635Z,73.07
2023-04-14T00:51:30.464Z,73.80
2023-04-14T00:54:00.747Z,75.73
2023-04-14T00:56:31.382Z,74.57
2023-04-14T00:59:02.332Z,74.07
2023-04-14T01:01:31.552Z,78.00
2023-04-14T01:04:00.160Z,74.40
2023-04-14T01:06:29.762Z,74.63
2023-04-14T01:09:00.783Z,75.60
2023-04-14T01:11:37.292Z,74.83
2023-04-14T01:14:13.230Z,75.20
2023-04-14T01:16:45.323Z,74.93
2023-04-14T01:19:32.056Z,74.37
2023-04-14T01:22:05.317Z,73.37
2023-04-14T01:25:07.296Z,73.90
2023-04-14T01:27:44.937Z,77.03
2023-04-14T01:30:36.541Z,76.37
2023-04-14T01:33:11.101Z,77.37
2023-04-14T01:35:43.460Z,76.50
2023-04-14T01:38:22.009Z,74.00
2023-04-14T01:40:53.394Z,74.63
2023-04-14T01:43:26.494Z,75.13
2023-04-14T01:45:57.803Z,76.40
2023-04-14T01:48:29.333Z,76.47
2023-04-14T01:50:59.575Z,77.57
2023-04-14T01:53:29.572Z,75.30
2023-04-14T01:55:59.521Z,75.37
2023-04-14T01:58:30.082Z,74.50
2023-04-14T02:00:59.873Z,76.40
2023-04-14T02:03:32.674Z,77.17
2023-04-14T02:06:04.149Z,75.30
2023-04-14T02:08:34.640Z,75.20
2023-04-14T02:11:05.331Z,76.53
2023-04-14T02:13:34.997Z,76.10
2023-04-14T02:16:09.053Z,76.27
2023-04-14T02:18:41.410Z,77.23
2023-04-14T02:21:10.932Z,75.17
2023-04-14T02:23:39.930Z,75.97
2023-04-14T02:26:14.078Z,76.67
2023-04-14T02:28:50.547Z,74.30
2023-04-14T02:31:23.834Z,76.80
2023-04-14T02:33:56.096Z,74.17
2023-04-14T02:36:29.142Z,74.87
2023-04-14T02:39:03.106Z,76.10
2023-04-14T02:41:34.486Z,74.33
2023-04-14T02:44:14.006Z,74.17
2023-04-14T02:46:47.337Z,75.53
2023-04-14T02:49:18.440Z,76.90
2023-04-14T02:51:48.853Z,76.63
2023-04-14T02:54:20.454Z,76.73
2023-04-14T02:56:50.450Z,75.00
2023-04-14T02:59:23.833Z,76.30
2023-04-14T03:02:02.251Z,75.40
2023-04-14T03:04:34.632Z,75.70
2023-04-14T03:07:08.744Z,76.57
2023-04-14T03:09:38.294Z,76.30
2023-04-14T03:12:08.354Z,77.27
2023-04-14T03:14:38.507Z,73.10
2023-04-14T03:17:07.691Z,74.20
2023-04-14T03:19:40.696Z,76.70
2023-04-14T03:22:11.915Z,76.80
2023-04-14T03:24:41.356Z,75.93
2023-04-14T03:27:15.364Z,75.73
2023-04-14T03:29:47.906Z,75.53
2023-04-14T03:32:20.146Z,75.63
2023-04-14T03:34:55.035Z,75.77
2023-04-14T03:37:27.090Z,76.60
2023-04-14T03:40:00.410Z,76.43
2023-04-14T03:42:31.090Z,75.30
2023-04-14T03:45:00.707Z,77.90
2023-04-14T03:47:31.689Z,75.87
2023-04-14T03:50:05.984Z,77.60
2023-04-14T03:52:39.075Z,77.13
2023-04-14T03:55:12.585Z,74.00
2023-04-14T03:57:44.100Z,75.93
2023-04-14T04:00:16.278Z,75.73
2023-04-14T04:02:49.227Z,75.37
2023-04-14T04:05:21.564Z,74.17
2023-04-14T04:07:51.711Z,77.33
2023-04-14T04:10:21.527Z,76.20
2023-04-14T04:12:51.925Z,74.00
2023-04-14T04:15:20.832Z,78.43
2023-04-14T04:17:51.979Z,79.70
2023-04-14T04:20:24.235Z,81.83
2023-04-14T04:22:56.567Z,81.77
2023-04-14T04:25:25.236Z,87.77
2023-04-14T04:28:09.150Z,85.97
2023-04-14T04:30:41.551Z,84.37
2023-04-14T04:33:12.411Z,85.13
2023-04-14T04:35:43.582Z,82.73
2023-04-14T04:38:12.335Z,80.13
2023-04-14T04:40:44.584Z,80.00
2023-04-14T04:43:20.076Z,84.23
2023-04-14T04:46:08.216Z,82.33
2023-04-14T04:48:37.327Z,83.07
2023-04-14T04:51:09.685Z,81.53
2023-04-14T04:53:37.990Z,83.13
2023-04-14T04:56:07.661Z,75.50
2023-04-14T04:58:35.971Z,76.53
2023-04-14T05:01:09.295Z,76.13
2023-04-14T05:03:37.762Z,77.50
2023-04-14T05:06:08.264Z,76.23
2023-04-14T05:08:36.468Z,75.50
2023-04-14T05:11:05.724Z,77.57
2023-04-14T05:13:34.053Z,75.87
2023-04-14T05:16:05.885Z,77.37
2023-04-14T05:18:34.862Z,75.93
2023-04-14T05:21:04.221Z,78.27
2023-04-14T05:23:35.369Z,92.10
2023-04-14T05:26:30.490Z,80.23
2023-04-14T05:28:53.778Z,79.70
2023-04-14T05:31:22.482Z,79.67
2023-04-14T05:33:50.854Z,80.00
2023-04-14T05:36:19.409Z,78.63
2023-04-14T05:38:48.940Z,78.10
2023-04-14T05:41:17.519Z,80.00
2023-04-14T05:43:45.865Z,79.17
2023-04-14T05:46:14.436Z,79.07
2023-04-14T05:48:42.654Z,78.73
2023-04-14T05:51:11.310Z,80.77
2023-04-14T05:53:39.446Z,78.67
2023-04-14T05:56:11.501Z,79.17
2023-04-14T05:58:39.827Z,80.10
2023-04-14T06:01:08.409Z,80.70
2023-04-14T06:03:39.514Z,79.27
2023-04-14T06:06:09.137Z,77.20
2023-04-14T06:08:37.430Z,78.63
2023-04-14T06:11:06.654Z,78.63
2023-04-14T06:13:36.652Z,77.87
2023-04-14T06:16:05.562Z,76.23
2023-04-14T06:18:33.928Z,76.00
2023-04-14T06:21:03.133Z,78.23
2023-04-14T06:23:32.294Z,75.70
2023-04-14T06:26:01.326Z,77.10
2023-04-14T06:28:29.597Z,77.83
2023-04-14T06:31:00.438Z,76.63
2023-04-14T06:33:28.836Z,78.97
2023-04-14T06:35:57.436Z,79.90
2023-04-14T06:38:27.032Z,77.13
2023-04-14T06:40:55.694Z,79.77
2023-04-14T06:43:23.806Z,79.87
2023-04-14T06:45:52.558Z,81.43
2023-04-14T06:48:22.056Z,81.33
2023-04-14T06:50:55.584Z,80.07
2023-04-14T06:53:23.916Z,82.53
2023-04-14T06:55:59.377Z,82.70
2023-04-14T06:58:28.955Z,83.17
2023-04-14T07:00:58.292Z,80.07
2023-04-14T07:03:31.432Z,82.37
2023-04-14T07:06:08.343Z,82.03
2023-04-14T07:08:37.267Z,82.20
2023-04-14T07:11:08.271Z,81.07
2023-04-14T07:13:37.080Z,82.60
2023-04-14T07:16:06.757Z,82.50
2023-04-14T07:18:37.149Z,80.63
2023-04-14T07:21:05.913Z,79.93
2023-04-14T07:23:34.407Z,82.50
2023-04-14T07:26:03.101Z,84.17
2023-04-14T07:28:32.465Z,82.10
2023-04-14T07:31:07.943Z,83.33
2023-04-14T07:33:37.713Z,82.70
2023-04-14T07:36:07.352Z,82.13
2023-04-14T07:38:36.504Z,82.13
2023-04-14T07:41:06.021Z,84.03
2023-04-14T07:43:35.004Z,81.93
2023-04-14T07:46:05.475Z,84.67
2023-04-14T07:48:34.670Z,84.93
2023-04-14T07:51:05.289Z,85.17
2023-04-14T07:53:33.848Z,87.63
2023-04-14T07:56:02.817Z,87.67
2023-04-14T07:58:31.212Z,88.63
2023-04-14T08:00:59.725Z,84.87
2023-04-14T08:03:28.522Z,86.27
2023-04-14T08:05:57.604Z,88.93
2023-04-14T08:08:27.508Z,86.73
2023-04-14T08:10:55.908Z,87.60
2023-04-14T08:13:24.360Z,87.10
2023-04-14T08:15:53.037Z,90.43
2023-04-14T08:18:21.687Z,86.43
2023-04-14T08:20:50.135Z,86.70
2023-04-14T08:23:18.269Z,85.17
2023-04-14T08:25:48.164Z,83.63
2023-04-14T08:28:16.401Z,84.70
2023-04-14T08:30:45.409Z,85.30
2023-04-14T08:33:13.642Z,87.93
2023-04-14T08:35:43.333Z,82.37
2023-04-14T08:38:12.194Z,82.63
2023-04-14T08:40:42.246Z,86.03
2023-04-14T08:43:15.163Z,82.73
2023-04-14T08:45:45.378Z,83.63
2023-04-14T08:48:17.376Z,82.87
2023-04-14T08:50:56.595Z,84.30
2023-04-14T08:53:27.380Z,85.10
2023-04-14T08:55:58.251Z,83.20
2023-04-14T08:58:29.138Z,82.93
2023-04-14T09:00:58.400Z,82.67
2023-04-14T09:03:26.908Z,83.87
2023-04-14T09:05:56.018Z,82.67
2023-04-14T09:08:25.024Z,81.77
2023-04-14T09:10:53.864Z,83.27
2023-04-14T09:13:23.268Z,85.17
2023-04-14T09:15:54.322Z,81.07
2023-04-14T09:18:23.158Z,83.07
2023-04-14T09:21:32.991Z,82.20
2023-04-14T09:23:41.822Z,81.87
2023-04-14T09:26:11.495Z,81.33
2023-04-14T09:28:40.209Z,81.70
2023-04-14T09:31:11.316Z,80.47
2023-04-14T09:33:40.585Z,82.67
2023-04-14T09:36:19.649Z,80.87
2023-04-14T09:38:49.790Z,80.87
2023-04-14T09:41:19.314Z,79.40
2023-04-14T09:43:47.618Z,80.20
2023-04-14T09:46:17.940Z,78.90
2023-04-14T09:48:55.323Z,80.07
2023-04-14T09:51:28.231Z,76.57
2023-04-14T09:54:02.678Z,80.70
2023-04-14T09:56:31.754Z,79.90
2023-04-14T09:59:01.740Z,78.83
2023-04-14T10:01:34.558Z,77.43
2023-04-14T10:04:03.505Z,77.63
2023-04-14T10:06:32.552Z,76.90
2023-04-14T10:09:01.293Z,78.57
2023-04-14T10:11:32.700Z,77.87
2023-04-14T10:14:03.893Z,78.20
2023-04-14T10:16:34.736Z,78.20
2023-04-14T10:19:04.251Z,77.03
2023-04-14T10:21:33.730Z,78.13
2023-04-14T10:24:03.014Z,77.80
2023-04-14T10:26:31.738Z,76.63
2023-04-14T10:29:02.250Z,79.33
2023-04-14T10:31:37.138Z,76.67
2023-04-14T10:34:10.754Z,76.83
2023-04-14T10:36:40.009Z,76.60
2023-04-14T10:39:09.716Z,78.60
2023-04-14T10:41:47.133Z,78.97
2023-04-14T10:44:29.353Z,75.40
2023-04-14T10:47:02.054Z,75.57
2023-04-14T10:49:32.763Z,75.53
2023-04-14T10:52:03.621Z,76.10
2023-04-14T10:54:49.995Z,74.67
2023-04-14T10:57:20.101Z,75.82
2023-04-14T10:59:49.353Z,76.45
2023-04-14T11:02:28.750Z,77.53
2023-04-14T11:05:06.537Z,78.07
2023-04-14T11:07:40.283Z,76.60
2023-04-14T11:10:29.180Z,80.20
2023-04-14T11:13:01.677Z,83.38
2023-04-14T11:15:46.744Z,82.03
2023-04-14T11:18:19.424Z,82.43
2023-04-14T11:20:47.810Z,82.60
2023-04-14T11:23:17.061Z,82.65
2023-04-14T11:25:45.743Z,82.68
2023-04-14T11:28:14.278Z,83.72
2023-04-14T11:30:44.123Z,81.28
2023-04-14T11:33:15.995Z,79.40
2023-04-14T11:35:45.919Z,79.45
2023-04-14T11:38:16.242Z,79.80
2023-04-14T11:40:50.422Z,78.35
2023-04-14T11:43:21.472Z,78.05
2023-04-14T11:45:52.851Z,79.15
2023-04-14T11:48:21.680Z,79.28
2023-04-14T11:50:52.257Z,76.32
2023-04-14T11:53:21.229Z,80.28
2023-04-14T11:55:51.970Z,77.50
2023-04-14T11:58:23.768Z,77.03
2023-04-14T12:00:55.495Z,77.03
2023-04-14T12:03:29.394Z,78.07
2023-04-14T12:06:01.289Z,75.15
2023-04-14T12:08:32.096Z,73.38
2023-04-14T12:11:13.191Z,75.05
2023-04-14T12:13:42.288Z,72.38
2023-04-14T12:16:10.747Z,73.30
2023-04-14T12:18:39.538Z,77.43
2023-04-14T12:21:11.923Z,74.18
2023-04-14T12:23:41.753Z,75.07
2023-04-14T12:26:13.594Z,75.80
2023-04-14T12:28:42.410Z,75.00
2023-04-14T12:31:11.634Z,73.80
2023-04-14T12:33:40.487Z,75.20
2023-04-14T12:36:13.577Z,75.07
2023-04-14T12:38:42.161Z,74.85
2023-04-14T12:41:10.840Z,71.65
2023-04-14T12:43:40.674Z,73.15
2023-04-14T12:46:09.117Z,71.03
2023-04-14T12:48:44.331Z,68.82
2023-04-14T12:51:15.458Z,70.75
2023-04-14T12:53:45.021Z,63.67
2023-04-14T12:56:14.952Z,65.65
2023-04-14T12:58:46.758Z,76.65
2023-04-14T13:01:17.677Z,76.38
2023-04-14T13:03:47.659Z,78.85
2023-04-14T13:06:18.876Z,77.20
2023-04-14T13:08:49.433Z,77.03
2023-04-14T13:11:19.291Z,76.80
2023-04-14T13:13:48.275Z,78.82
2023-04-14T13:16:19.121Z,80.20
2023-04-14T13:18:49.251Z,75.38
2023-04-14T13:21:19.298Z,79.28
2023-04-14T13:23:47.932Z,79.32
2023-04-14T13:26:16.713Z,79.90
2023-04-14T13:28:45.917Z,78.25
2023-04-14T13:31:18.123Z,79.95
2023-04-14T13:33:46.810Z,79.57
2023-04-14T13:36:15.154Z,78.32
2023-04-14T13:38:45.247Z,76.05
2023-04-14T13:41:15.300Z,77.57
2023-04-14T13:43:44.033Z,77.05
2023-04-14T13:46:12.702Z,79.28
2023-04-14T13:48:43.722Z,77.07
2023-04-14T13:51:12.163Z,78.30
2023-04-14T13:53:40.867Z,76.85
2023-04-14T13:56:11.211Z,75.10
2023-04-14T13:58:39.641Z,74.97
2023-04-14T14:01:11.598Z,74.78
2023-04-14T14:03:41.441Z,76.10
2023-04-14T14:06:09.981Z,79.00
2023-04-14T14:08:38.779Z,77.60
2023-04-14T14:11:07.232Z,79.55
2023-04-14T14:13:38.575Z,78.97
2023-04-14T14:16:08.540Z,80.32
2023-04-14T14:18:37.775Z,78.45
2023-04-14T14:21:06.523Z,74.93
2023-04-14T14:23:34.975Z,77.85
2023-04-14T14:26:03.161Z,77.07
2023-04-14T14:28:32.449Z,75.82
2023-04-14T14:31:02.755Z,78.57
2023-04-14T14:33:32.384Z,75.88
2023-04-14T14:36:00.822Z,76.88
2023-04-14T14:38:29.442Z,78.03
2023-04-14T14:40:57.759Z,77.75
2023-04-14T14:43:26.675Z,77.53
2023-04-14T14:45:54.966Z,74.68
2023-04-14T14:48:25.443Z,75.18
2023-04-14T14:50:53.678Z,79.95
2023-04-14T14:53:22.211Z,78.07
2023-04-14T14:55:50.391Z,80.95
2023-04-14T14:58:19.004Z,78.60
2023-04-14T15:00:47.823Z,79.75
2023-04-14T15:03:17.109Z,79.45
2023-04-14T15:05:47.523Z,84.28
2023-04-14T15:08:16.031Z,78.13
2023-04-14T15:10:44.346Z,80.07
2023-04-14T15:13:13.235Z,79.95
2023-04-14T15:15:42.590Z,75.85
2023-04-14T15:18:11.330Z,75.43
2023-04-14T15:20:39.594Z,82.05
2023-04-14T15:23:09.569Z,75.18
2023-04-14T15:25:37.969Z,74.10
2023-04-14T15:28:06.664Z,71.85
2023-04-14T15:30:35.010Z,80.45
2023-04-14T15:33:03.612Z,82.25
2023-04-14T15:35:36.345Z,78.95
2023-04-14T15:38:05.519Z,80.55
2023-04-14T15:40:35.243Z,76.15
2023-04-14T15:43:03.756Z,77.72
2023-04-14T15:45:32.104Z,76.53
2023-04-14T15:48:00.709Z,77.45
2023-04-14T15:50:29.056Z,76.55
2023-04-14T15:52:58.874Z,76.45
2023-04-14T15:55:28.896Z,77.03
2023-04-14T15:57:58.757Z,80.07
2023-04-14T16:00:27.086Z,78.07
2023-04-14T16:02:55.670Z,79.60
2023-04-14T16:05:24.080Z,75.50
2023-04-14T16:07:52.644Z,73.75
2023-04-14T16:10:20.986Z,74.50
2023-04-14T16:12:50.445Z,70.70
2023-04-14T16:15:20.326Z,70.80
2023-04-14T16:17:49.056Z,69.47
2023-04-14T16:20:18.375Z,72.07
2023-04-14T16:22:49.207Z,72.82
2023-04-14T16:25:17.757Z,70.90
2023-04-14T16:27:46.211Z,70.40
2023-04-14T16:30:14.616Z,68.80
2023-04-14T16:32:44.739Z,70.22
2023-04-14T16:35:13.054Z,70.72
2023-04-14T16:37:41.655Z,67.50
2023-04-14T16:40:11.543Z,70.72
2023-04-14T16:42:40.198Z,70.05
2023-04-14T16:45:09.349Z,70.72
2023-04-14T16:47:37.915Z,70.30
2023-04-14T16:50:08.556Z,71.78
2023-04-14T16:52:37.796Z,69.75
2023-04-14T16:55:06.558Z,71.80
2023-04-14T16:57:35.225Z,69.25
2023-04-14T17:00:03.828Z,73.80
2023-04-14T17:02:32.646Z,73.03
2023-04-14T17:05:01.583Z,69.47
2023-04-14T17:07:31.659Z,71.05
2023-04-14T17:10:00.138Z,70.40
2023-04-14T17:12:28.642Z,73.57
2023-04-14T17:14:57.268Z,72.88
2023-04-14T17:17:25.948Z,69.70
2023-04-14T17:19:55.204Z,70.18
2023-04-14T17:22:25.036Z,70.97
2023-04-14T17:24:55.669Z,71.88
2023-04-14T17:27:24.277Z,68.72
2023-04-14T17:29:53.232Z,69.75
2023-04-14T17:32:22.042Z,69.75
2023-04-14T17:34:50.928Z,71.15
2023-04-14T17:37:19.348Z,70.43
2023-04-14T17:39:49.218Z,71.07
2023-04-14T17:42:19.145Z,68.43
2023-04-14T17:44:47.504Z,66.57
2023-04-14T17:47:16.813Z,69.95
2023-04-14T17:49:45.307Z,70.88
2023-04-14T17:52:19.106Z,69.97
2023-04-14T17:54:49.493Z,66.78
2023-04-14T17:57:19.949Z,67.78
2023-04-14T17:59:48.511Z,66.82
2023-04-14T18:02:17.120Z,67.97
2023-04-14T18:04:47.151Z,69.30
2023-04-14T18:07:15.920Z,68.53
2023-04-14T18:09:44.342Z,69.65
2023-04-14T18:12:13.741Z,73.00
2023-04-14T18:14:44.677Z,69.32
2023-04-14T18:17:13.434Z,69.15
2023-04-14T18:19:41.607Z,66.90
2023-04-14T18:22:10.336Z,68.20
2023-04-14T18:29:43.379Z,69.15
2023-04-14T18:32:11.934Z,68.88
2023-04-14T18:34:40.110Z,71.07
2023-04-14T18:37:08.536Z,70.63
2023-04-14T18:39:37.434Z,70.10
2023-04-14T18:42:06.104Z,69.80
2023-04-14T18:44:34.440Z,69.82
2023-04-14T18:47:04.482Z,70.75
2023-04-14T18:49:32.882Z,70.68
2023-04-14T18:52:01.928Z,71.25
2023-04-14T18:54:30.217Z,71.55
2023-04-14T18:57:00.059Z,69.78
2023-04-14T18:59:28.482Z,71.45
2023-04-14T19:01:58.039Z,71.32
2023-04-14T19:04:27.830Z,69.28
2023-04-14T19:06:56.463Z,73.80
2023-04-14T19:09:24.707Z,72.15
2023-04-14T19:11:53.176Z,72.13
2023-04-14T19:14:21.622Z,73.10
2023-04-14T19:16:50.271Z,69.93
2023-04-14T19:19:19.299Z,70.35
2023-04-14T19:21:49.254Z,72.53
2023-04-14T19:24:17.621Z,71.25
2023-04-14T19:26:46.444Z,73.28
2023-04-14T19:29:14.754Z,73.95
2023-04-14T19:31:43.879Z,75.05
2023-04-14T19:34:12.272Z,74.00
2023-04-14T19:36:40.891Z,70.78
2023-04-14T19:39:10.570Z,72.75
2023-04-14T19:41:39.185Z,70.85
2023-04-14T19:44:08.460Z,71.22
2023-04-14T19:46:37.208Z,71.97
2023-04-14T19:49:05.614Z,71.18
2023-04-14T19:51:35.009Z,71.55
2023-04-14T19:54:05.309Z,73.32
2023-04-14T19:56:35.886Z,69.68
2023-04-14T19:59:04.160Z,69.90
2023-04-14T20:01:32.748Z,70.57
2023-04-14T20:04:06.339Z,68.20
2023-04-14T20:06:40.578Z,69.63
2023-04-14T20:09:08.876Z,70.03
2023-04-14T20:11:38.866Z,71.55
2023-04-14T20:14:07.198Z,72.82
2023-04-14T20:16:35.963Z,74.00
2023-04-14T20:19:04.409Z,71.22
2023-04-14T20:21:33.686Z,74.82
2023-04-14T20:24:02.009Z,78.78
2023-04-14T20:26:30.701Z,77.03
2023-04-14T20:29:00.800Z,76.45
2023-04-14T20:31:29.864Z,75.43
2023-04-14T20:33:58.315Z,76.13
2023-04-14T20:36:27.057Z,79.45
2023-04-14T20:38:55.497Z,78.38
2023-04-14T20:41:24.070Z,79.07
2023-04-14T20:43:52.443Z,79.10
2023-04-14T20:46:22.725Z,76.38
2023-04-14T20:48:51.120Z,77.78
2023-04-14T20:51:19.755Z,77.60
2023-04-14T20:53:48.596Z,76.68
2023-04-14T20:56:17.849Z,79.45
2023-04-14T20:58:46.529Z,78.82
2023-04-14T21:01:15.592Z,79.13
2023-04-14T21:03:45.353Z,80.53
2023-04-14T21:06:14.079Z,81.40
2023-04-14T21:08:42.379Z,80.18
2023-04-14T21:11:16.190Z,80.30
2023-04-14T21:15:27.170Z,77.97
2023-04-14T21:16:36.715Z,81.18
2023-04-14T21:19:06.878Z,80.68
2023-04-14T21:21:35.702Z,80.07
2023-04-14T21:24:04.372Z,82.00
2023-04-14T21:26:32.934Z,79.03
2023-04-14T21:29:01.667Z,79.78
2023-04-14T21:31:30.547Z,87.20
2023-04-14T21:33:59.044Z,80.25
2023-04-14T21:36:29.278Z,82.20
2023-04-14T21:38:58.097Z,84.07
2023-04-14T21:41:27.394Z,80.97
2023-04-14T21:43:55.758Z,79.30
2023-04-14T21:46:24.399Z,78.40
2023-04-14T21:48:52.770Z,82.20
2023-04-14T21:51:21.404Z,86.60
2023-04-14T21:53:51.331Z,85.57
2023-04-14T21:56:20.448Z,83.90
2023-04-14T21:58:49.496Z,83.33
2023-04-14T22:01:18.094Z,84.20
2023-04-14T22:03:47.031Z,88.07
2023-04-14T22:06:15.811Z,82.63
2023-04-14T22:08:44.173Z,85.37
2023-04-14T22:11:14.569Z,85.63
2023-04-14T22:13:43.035Z,87.87
2023-04-14T22:16:12.008Z,89.73
2023-04-14T22:18:40.415Z,87.97
2023-04-14T22:21:12.048Z,95.87
2023-04-14T22:23:43.532Z,67.10
2023-04-14T22:26:14.066Z,68.60
2023-04-14T22:28:42.341Z,67.97
2023-04-14T22:31:11.065Z,68.13
2023-04-14T22:33:39.423Z,68.45
2023-04-14T22:36:09.571Z,69.40
2023-04-14T22:38:37.878Z,71.10
2023-04-14T22:41:06.710Z,71.57
2023-04-14T22:43:36.577Z,66.50
2023-04-14T22:46:05.400Z,65.47
2023-04-14T22:48:33.619Z,67.63
2023-04-14T22:51:02.204Z,67.90
2023-04-14T22:53:30.550Z,65.00
2023-04-14T22:55:59.156Z,66.70
2023-04-14T22:58:27.570Z,66.30
2023-04-14T23:00:57.585Z,67.03
2023-04-14T23:03:26.004Z,66.10
2023-04-14T23:05:55.089Z,66.23
2023-04-14T23:08:23.462Z,67.13
2023-04-14T23:10:52.179Z,67.93
2023-04-14T23:13:20.734Z,68.17
2023-04-14T23:15:52.702Z,68.83
2023-04-14T23:18:24.448Z,67.87
2023-04-14T23:20:53.072Z,70.13
2023-04-14T23:23:21.300Z,69.47
2023-04-14T23:25:49.795Z,70.20
2023-04-14T23:28:18.373Z,68.10
2023-04-14T23:30:46.919Z,69.63
2023-04-14T23:33:15.209Z,67.83
2023-04-14T23:35:45.333Z,69.10
2023-04-14T23:38:13.925Z,69.50
2023-04-14T23:40:42.504Z,68.93
2023-04-14T23:43:10.711Z,70.50
2023-04-14T23:45:39.353Z,69.43
2023-04-14T23:48:08.338Z,68.70
2023-04-14T23:50:59.734Z,68.73
2023-04-14T23:53:27.303Z,70.23
2023-04-14T23:55:55.877Z,71.10
2023-04-14T23:58:26.914Z,72.47
